Accueil
METAR-TAF:

METAR-TAF

Aéroports :

Boscombe Down, Angleterre

latitude: 51-10N, longitude: 001-45W, altitude: 124 m

Observation

Le bulletin a été fait il y a 42 minutes, à 02:20 UTC
Vent 10 kt de nord-est
Température 5°C
Humidité 81%
Pression 1023 hPa
Visibilité 10 km ou plus

METAR: EGDM 030220Z AUTO 04010KT 9999 OVC032/// 05/02 Q1023

Heure: 03:02 (03:02 UTC)

Prévision

Le bulletin a été fait il y a 12 heures et 13 minutes, à 14:49 UTC
Prévision valable du 02 à 15 UTC au 02 à 18 UTC
Vent 9 kt de nord/nord-est
Visibilité 10 km ou plus
Quelques nuages à une hauteur de 700 ft
Temporairement
du 02 à 15 UTC au 02 à 18 UTC
Nuages épars à une hauteur de 600 ft
Probabilité 30% :
Temporairement
du 02 à 15 UTC au 02 à 18 UTC
Visibilité: 5000 m
Nuages épars à une hauteur de 400 ft
brume

TAF: EGDM 021449Z 0215/0218 03009KT 9999 FEW007 TEMPO 0215/0218 SCT006 PROB30 TEMPO 0215/0218 5000 BR SCT004

Observations et prévisions météorologiques de plus de 4000 aéroports (messages METAR et TAF).

Les stations disponibles sont représentées par des disques jaunes et rouges sur la carte.

Passer la souris dessus pour voir le nom de la station.

Cliquer dessus pour voir les observations et prévisions météorologiques.

Pour changer de carte: cliquez sur les boutons verts avec une croix noire pour zoomer, sur le bouton vert avec un tiret pour effectuer un zoom arrière, ou sur les flèches vertes pour les cartes adjacentes.


METAR-TAF: